Time;durP1;ratioP1;P1;durP2;ratioP2;P2;SDS_P1;SDS_P2;PMS_P1;PMS_P2;Temp;Humidity;BMP_temperature;BMP_pressure;BME280_temperature;BME280_humidity;BME280_pressure;Samples;Min_cycle;Max_cycle;Signal;HPM_P1;HPM_P2
2021/12/09 00:02:19;;;;;;;31.70;21.10;;;4.70;74.70;;;;;;5071291;28;20035;-79
2021/12/09 00:04:45;;;;;;;36.17;21.70;;;4.70;74.50;;;;;;5072134;28;20466;-67
2021/12/09 00:07:11;;;;;;;31.23;20.70;;;4.70;75.10;;;;;;5071924;28;20133;-75
2021/12/09 00:09:37;;;;;;;30.23;20.10;;;4.80;74.20;;;;;;5072213;28;20495;-71
2021/12/09 00:12:05;;;;;;;32.08;21.15;;;4.80;74.00;;;;;;5072337;28;20111;-70
2021/12/09 00:14:33;;;;;;;30.85;19.80;;;4.90;73.80;;;;;;5071515;28;20020;-72
2021/12/09 00:17:07;;;;;;;31.88;21.10;;;4.90;73.70;;;;;;5072511;28;20032;-69
2021/12/09 00:19:35;;;;;;;31.08;20.38;;;5.00;73.40;;;;;;5071675;28;20033;-69
2021/12/09 00:22:02;;;;;;;35.88;20.98;;;5.00;73.10;;;;;;5073165;28;20477;-73
2021/12/09 00:24:28;;;;;;;35.22;21.92;;;4.90;72.90;;;;;;5070775;28;20032;-72
2021/12/09 00:26:54;;;;;;;31.25;21.92;;;5.00;72.80;;;;;;5070157;28;20393;-69
2021/12/09 00:29:20;;;;;;;33.33;21.58;;;4.90;72.80;;;;;;5052191;28;20029;-68
2021/12/09 00:31:49;;;;;;;30.38;20.42;;;4.80;73.00;;;;;;5052147;28;20090;-71
2021/12/09 00:34:19;;;;;;;34.92;23.38;;;4.80;73.00;;;;;;5033907;28;20033;-78
2021/12/09 00:36:56;;;;;;;34.67;22.63;;;4.70;73.10;;;;;;5052656;28;20021;-65
2021/12/09 00:39:22;;;;;;;34.40;22.05;;;4.70;73.00;;;;;;5051283;28;20039;-74
2021/12/09 00:41:48;;;;;;;34.83;23.10;;;4.70;73.20;;;;;;5021268;28;20108;-70
2021/12/09 00:44:14;;;;;;;37.05;22.98;;;4.60;73.00;;;;;;5054479;28;20025;-69
2021/12/09 00:46:40;;;;;;;33.78;21.95;;;4.60;73.00;;;;;;5055176;28;20025;-74
2021/12/09 00:49:06;;;;;;;35.63;21.80;;;4.60;73.00;;;;;;5055257;28;20029;-67
2021/12/09 00:51:32;;;;;;;35.95;23.40;;;4.50;73.00;;;;;;5054795;28;20036;-75
2021/12/09 00:53:58;;;;;;;35.05;22.80;;;4.50;73.50;;;;;;5055103;28;20021;-73
2021/12/09 00:56:24;;;;;;;38.72;23.88;;;4.50;73.50;;;;;;5054567;28;20033;-63
2021/12/09 00:58:50;;;;;;;37.50;22.52;;;4.50;73.60;;;;;;5055064;28;20386;-70
2021/12/09 01:01:17;;;;;;;39.42;25.27;;;4.60;73.50;;;;;;5054428;28;20021;-64
2021/12/09 01:03:45;;;;;;;38.00;24.50;;;4.60;73.50;;;;;;5055282;28;20099;-69
2021/12/09 01:06:11;;;;;;;36.25;24.13;;;4.60;73.40;;;;;;5054831;28;20438;-67
2021/12/09 01:08:37;;;;;;;38.10;24.70;;;4.60;73.40;;;;;;5054725;28;20047;-66
2021/12/09 01:11:04;;;;;;;41.75;26.00;;;4.60;73.50;;;;;;5055062;28;20079;-64
2021/12/09 01:13:30;;;;;;;39.88;26.52;;;4.60;73.40;;;;;;5036530;28;20028;-65
2021/12/09 01:15:56;;;;;;;45.00;27.17;;;4.70;73.40;;;;;;5054402;28;20017;-68
2021/12/09 01:18:22;;;;;;;41.28;27.08;;;4.60;73.40;;;;;;5054320;28;20037;-68
2021/12/09 01:20:49;;;;;;;47.40;28.17;;;4.60;73.50;;;;;;5054767;28;20096;-66
2021/12/09 01:23:15;;;;;;;48.53;29.92;;;4.50;74.20;;;;;;5036004;28;20040;-64
2021/12/09 01:25:41;;;;;;;46.17;29.73;;;4.50;74.50;;;;;;5054675;28;20378;-61
2021/12/09 01:28:13;;;;;;;47.38;30.02;;;4.40;75.30;;;;;;5054558;28;20406;-67
2021/12/09 01:30:39;;;;;;;55.28;31.48;;;4.40;75.80;;;;;;5054633;28;20029;-64
2021/12/09 01:33:06;;;;;;;56.75;32.63;;;4.30;76.10;;;;;;5054600;28;20024;-67
2021/12/09 01:35:34;;;;;;;56.65;34.75;;;4.30;76.50;;;;;;5053593;28;20212;-66
2021/12/09 01:38:09;;;;;;;58.50;34.13;;;4.20;77.30;;;;;;5036495;28;20500;-64
2021/12/09 01:40:35;;;;;;;54.97;34.70;;;4.20;77.70;;;;;;5053625;28;20033;-66
2021/12/09 01:43:01;;;;;;;57.75;35.58;;;4.30;78.00;;;;;;5054164;28;20017;-63
2021/12/09 01:45:27;;;;;;;62.03;36.00;;;4.20;77.60;;;;;;5035920;28;20458;-63
2021/12/09 01:47:54;;;;;;;62.67;37.72;;;4.20;77.80;;;;;;5054205;28;20025;-64
2021/12/09 01:50:21;;;;;;;61.83;37.67;;;4.20;78.20;;;;;;5053090;28;20021;-64
2021/12/09 01:52:46;;;;;;;64.07;39.17;;;4.20;79.40;;;;;;5054164;28;20032;-65
2021/12/09 01:55:15;;;;;;;66.38;39.58;;;4.20;80.10;;;;;;5054143;28;20112;-64
2021/12/09 01:57:41;;;;;;;68.47;41.67;;;4.10;80.80;;;;;;5036016;28;20043;-63
2021/12/09 02:00:11;;;;;;;71.80;44.40;;;4.00;82.20;;;;;;5054028;28;20025;-61
2021/12/09 02:02:38;;;;;;;76.93;44.63;;;4.00;83.00;;;;;;5053174;28;20028;-62
2021/12/09 02:05:05;;;;;;;77.47;45.88;;;3.90;83.40;;;;;;5053855;28;20029;-65
2021/12/09 02:07:31;;;;;;;78.97;45.22;;;3.80;85.20;;;;;;5035266;28;20111;-65
2021/12/09 02:09:57;;;;;;;76.47;43.70;;;3.80;85.30;;;;;;5053836;28;20506;-65
2021/12/09 02:12:22;;;;;;;79.35;45.05;;;3.90;85.60;;;;;;5053171;28;20036;-65
2021/12/09 02:14:48;;;;;;;82.18;47.50;;;3.80;85.30;;;;;;5053435;28;20111;-66
2021/12/09 02:17:14;;;;;;;81.57;47.10;;;3.70;85.30;;;;;;5053185;28;20036;-65
2021/12/09 02:19:42;;;;;;;80.18;46.80;;;3.70;85.70;;;;;;5034142;28;20036;-64
2021/12/09 02:22:14;;;;;;;88.65;49.30;;;3.70;86.00;;;;;;5052405;28;20021;-63
2021/12/09 02:24:40;;;;;;;84.82;47.65;;;3.70;86.50;;;;;;5035176;28;20024;-66
2021/12/09 02:27:06;;;;;;;87.03;48.78;;;3.60;86.80;;;;;;5040657;28;20052;-65
2021/12/09 02:29:32;;;;;;;89.57;48.67;;;3.60;87.30;;;;;;5072033;28;20036;-65
2021/12/09 02:31:59;;;;;;;88.13;50.70;;;3.70;87.60;;;;;;5072908;28;20099;-65
2021/12/09 02:34:25;;;;;;;86.45;48.47;;;3.80;87.60;;;;;;5072300;28;20047;-61
2021/12/09 02:36:51;;;;;;;89.95;48.35;;;3.80;86.50;;;;;;5072833;28;20029;-61
2021/12/09 02:39:18;;;;;;;92.53;52.17;;;3.70;86.70;;;;;;5071875;28;20040;-62
2021/12/09 02:41:46;;;;;;;90.43;50.47;;;3.70;87.00;;;;;;5072346;28;20074;-61
2021/12/09 02:44:18;;;;;;;87.85;49.20;;;3.80;87.00;;;;;;5070769;28;20119;-62
2021/12/09 02:46:46;;;;;;;94.80;50.45;;;3.80;87.20;;;;;;5071042;28;20032;-62
2021/12/09 02:49:15;;;;;;;86.40;50.08;;;3.80;86.70;;;;;;5071142;28;20032;-64
2021/12/09 02:51:42;;;;;;;91.78;50.28;;;3.80;87.00;;;;;;5071270;28;20034;-62
2021/12/09 02:54:09;;;;;;;93.97;53.13;;;3.90;87.30;;;;;;5071928;28;20078;-62
2021/12/09 02:56:54;;;;;;;95.68;52.13;;;3.90;86.70;;;;;;5072895;28;20025;-61
2021/12/09 02:59:20;;;;;;;92.97;52.13;;;3.90;86.50;;;;;;5070810;28;20036;-60
2021/12/09 03:01:57;;;;;;;99.43;54.03;;;3.90;86.40;;;;;;5071365;28;20070;-66
2021/12/09 03:04:36;;;;;;;95.18;52.55;;;3.80;86.50;;;;;;5071667;28;20477;-63
2021/12/09 03:07:03;;;;;;;98.35;52.80;;;3.80;86.70;;;;;;5071317;28;20148;-61
2021/12/09 03:09:29;;;;;;;99.47;55.13;;;3.80;86.70;;;;;;5071972;28;20029;-63
2021/12/09 03:11:55;;;;;;;100.95;57.05;;;3.70;86.60;;;;;;5071149;28;20166;-65
2021/12/09 03:14:23;;;;;;;97.22;54.30;;;3.60;86.90;;;;;;5070862;28;20031;-65
2021/12/09 03:16:50;;;;;;;112.72;57.25;;;3.60;87.40;;;;;;5071211;28;20112;-66
2021/12/09 03:19:15;;;;;;;106.63;58.42;;;3.60;87.50;;;;;;5070842;28;20033;-64
2021/12/09 03:21:44;;;;;;;100.22;53.67;;;3.60;88.00;;;;;;5072425;28;20417;-65
2021/12/09 03:24:14;;;;;;;105.72;55.53;;;3.50;88.00;;;;;;5070536;28;20020;-63
2021/12/09 03:26:47;;;;;;;108.40;55.35;;;3.40;88.10;;;;;;5069774;28;20032;-65
2021/12/09 03:29:15;;;;;;;108.50;56.65;;;3.50;88.50;;;;;;5034260;28;20029;-63
2021/12/09 03:31:43;;;;;;;110.45;57.22;;;3.50;88.90;;;;;;5052509;28;20100;-65
2021/12/09 03:34:11;;;;;;;115.10;57.80;;;3.60;88.70;;;;;;5033449;28;20033;-65
2021/12/09 03:36:38;;;;;;;105.50;56.15;;;3.60;88.60;;;;;;5034579;28;20505;-63
2021/12/09 03:39:09;;;;;;;110.30;57.75;;;3.60;88.60;;;;;;5052384;28;20036;-62
2021/12/09 03:41:35;;;;;;;107.97;55.78;;;3.70;88.60;;;;;;5034798;28;20029;-63
2021/12/09 03:44:01;;;;;;;105.15;55.05;;;3.60;88.00;;;;;;5052442;28;20035;-65
2021/12/09 03:46:27;;;;;;;106.97;57.47;;;3.60;88.50;;;;;;5034016;28;20111;-63
2021/12/09 03:48:53;;;;;;;103.22;55.65;;;3.60;88.90;;;;;;5034434;28;20087;-63
2021/12/09 03:51:18;;;;;;;110.03;58.00;;;3.60;88.60;;;;;;5033955;28;20480;-66
2021/12/09 03:53:44;;;;;;;106.40;55.60;;;3.60;88.90;;;;;;5034169;28;20031;-66
2021/12/09 03:56:10;;;;;;;110.47;57.83;;;3.60;88.60;;;;;;5033876;28;20052;-65
2021/12/09 03:58:35;;;;;;;108.80;58.38;;;3.60;88.10;;;;;;5034292;28;20385;-65
2021/12/09 04:01:01;;;;;;;107.72;57.72;;;3.60;88.40;;;;;;5051939;28;20026;-65
2021/12/09 04:03:27;;;;;;;117.32;59.72;;;3.60;88.80;;;;;;5033932;28;20025;-66
2021/12/09 04:05:53;;;;;;;116.07;58.85;;;3.60;88.20;;;;;;5052066;28;20356;-62
2021/12/09 04:08:21;;;;;;;115.13;60.15;;;3.50;88.00;;;;;;5033861;28;20034;-63
2021/12/09 04:10:49;;;;;;;121.25;59.38;;;3.50;88.60;;;;;;5052122;28;20024;-63
2021/12/09 04:13:15;;;;;;;112.03;56.83;;;3.40;89.00;;;;;;5051657;28;20056;-65
2021/12/09 04:15:41;;;;;;;114.72;58.33;;;3.40;89.60;;;;;;5038457;28;20029;-63
2021/12/09 04:18:07;;;;;;;112.22;58.08;;;3.50;89.30;;;;;;5056157;28;20040;-63
2021/12/09 04:20:32;;;;;;;122.00;62.03;;;3.40;89.40;;;;;;5054993;28;20420;-62
2021/12/09 04:22:58;;;;;;;118.38;57.63;;;3.40;89.40;;;;;;5038072;28;20067;-64
2021/12/09 04:25:25;;;;;;;137.88;62.80;;;3.40;89.60;;;;;;5037470;28;20025;-64
2021/12/09 04:27:53;;;;;;;124.65;61.70;;;3.30;89.60;;;;;;5056541;28;20044;-64
2021/12/09 04:30:19;;;;;;;114.40;61.30;;;3.40;90.10;;;;;;5073785;28;20020;-63
2021/12/09 04:32:46;;;;;;;123.80;61.00;;;3.40;90.10;;;;;;5074434;28;20025;-62
2021/12/09 04:35:12;;;;;;;122.30;61.42;;;3.40;90.10;;;;;;5074979;28;20173;-68
2021/12/09 04:37:39;;;;;;;119.53;60.47;;;3.40;90.10;;;;;;5074966;28;20027;-65
2021/12/09 04:40:07;;;;;;;121.20;62.38;;;3.40;90.10;;;;;;5075550;28;20111;-62
2021/12/09 04:42:33;;;;;;;121.90;60.83;;;3.50;90.10;;;;;;5074895;28;20056;-60
2021/12/09 04:44:59;;;;;;;112.75;58.00;;;3.50;90.30;;;;;;5075189;28;20055;-61
2021/12/09 04:47:25;;;;;;;112.53;56.08;;;3.50;90.20;;;;;;5074616;28;20129;-61
2021/12/09 04:49:51;;;;;;;121.90;60.83;;;3.50;90.00;;;;;;5075597;28;20025;-66
2021/12/09 04:52:16;;;;;;;117.50;60.90;;;3.50;90.00;;;;;;5073233;28;20029;-63
2021/12/09 04:54:42;;;;;;;115.93;59.22;;;3.50;90.10;;;;;;5074760;28;20032;-65
2021/12/09 04:57:09;;;;;;;121.18;61.80;;;3.50;90.10;;;;;;5073925;28;20032;-62
2021/12/09 04:59:35;;;;;;;108.43;58.15;;;3.50;90.10;;;;;;5074586;28;20060;-65
2021/12/09 05:02:02;;;;;;;108.75;57.65;;;3.50;90.10;;;;;;5073838;28;20024;-63
2021/12/09 05:04:28;;;;;;;122.90;61.25;;;3.50;90.00;;;;;;5073321;28;20090;-64
2021/12/09 05:06:55;;;;;;;121.28;60.72;;;3.50;90.00;;;;;;5073933;28;20032;-61
2021/12/09 05:09:20;;;;;;;114.88;58.30;;;3.50;90.10;;;;;;5074050;28;20028;-63
2021/12/09 05:14:15;;;;;;;114.38;59.72;;;3.60;90.10;;;;;;5074898;28;20031;-62
2021/12/09 05:16:41;;;;;;;115.35;60.45;;;3.60;90.00;;;;;;5073227;28;20055;-64
2021/12/09 05:19:06;;;;;;;113.13;59.00;;;3.70;89.90;;;;;;5074487;28;20067;-63
2021/12/09 05:21:37;;;;;;;104.93;56.92;;;3.70;89.70;;;;;;5074044;28;20112;-63
2021/12/09 05:24:04;;;;;;;107.13;56.70;;;3.80;89.50;;;;;;5073546;28;20028;-60
2021/12/09 05:29:16;;;;;;;94.25;52.88;;;3.80;89.20;;;;;;5074723;28;20453;-61
2021/12/09 05:34:29;;;;;;;99.00;51.13;;;3.60;88.80;;;;;;5074065;28;20043;-61
2021/12/09 05:36:56;;;;;;;97.85;52.72;;;3.60;89.10;;;;;;5074472;28;20077;-62
2021/12/09 05:39:22;;;;;;;93.65;50.95;;;3.60;89.20;;;;;;5073847;28;20033;-66
2021/12/09 05:41:48;;;;;;;91.95;50.40;;;3.60;89.10;;;;;;5073712;28;20074;-63
2021/12/09 05:44:15;;;;;;;90.70;50.67;;;3.60;89.00;;;;;;5056299;28;20024;-61
2021/12/09 05:46:44;;;;;;;93.32;51.00;;;3.70;89.40;;;;;;5055835;28;20446;-63
2021/12/09 05:49:11;;;;;;;92.60;50.63;;;3.70;89.50;;;;;;5040021;28;20469;-61
2021/12/09 05:51:38;;;;;;;87.47;49.00;;;3.80;89.40;;;;;;5055618;28;20159;-62
2021/12/09 05:54:04;;;;;;;94.13;50.80;;;3.80;89.00;;;;;;5074142;28;20450;-62
2021/12/09 05:56:30;;;;;;;89.97;49.10;;;3.80;89.30;;;;;;5055717;28;20028;-63
2021/12/09 05:58:56;;;;;;;92.18;50.60;;;3.90;89.20;;;;;;5073749;28;20039;-64
2021/12/09 06:01:22;;;;;;;89.57;50.42;;;4.00;89.00;;;;;;5055433;28;20110;-65
2021/12/09 06:03:48;;;;;;;94.65;50.65;;;4.00;88.30;;;;;;5073403;28;20481;-65
2021/12/09 06:06:14;;;;;;;81.38;45.33;;;4.10;88.50;;;;;;5055607;28;20052;-66
2021/12/09 06:08:41;;;;;;;73.82;43.33;;;4.00;87.70;;;;;;5073195;28;20448;-64
2021/12/09 06:11:10;;;;;;;73.38;43.03;;;4.00;87.40;;;;;;5073402;28;20104;-66
2021/12/09 06:13:37;;;;;;;69.68;42.42;;;3.90;87.30;;;;;;5073042;28;20119;-62
2021/12/09 06:16:05;;;;;;;73.50;42.70;;;3.80;87.40;;;;;;5071326;28;20024;-64
2021/12/09 06:18:32;;;;;;;76.95;43.45;;;3.80;88.20;;;;;;5073081;28;20530;-65
2021/12/09 06:20:58;;;;;;;78.25;43.92;;;3.70;88.30;;;;;;5073428;28;20090;-60
2021/12/09 06:23:24;;;;;;;79.45;44.22;;;3.70;88.70;;;;;;5072661;28;20029;-60
2021/12/09 06:25:50;;;;;;;74.05;43.35;;;3.80;88.90;;;;;;5073404;28;20024;-60
2021/12/09 06:28:19;;;;;;;74.65;42.00;;;3.80;88.30;;;;;;5059061;28;20070;-62
2021/12/09 06:30:47;;;;;;;73.07;42.53;;;3.70;88.70;;;;;;5034692;28;20047;-60
2021/12/09 06:33:13;;;;;;;71.57;41.65;;;3.70;88.80;;;;;;5053595;28;20094;-61
2021/12/09 06:35:40;;;;;;;70.22;42.33;;;3.70;88.60;;;;;;5052116;28;20029;-58
2021/12/09 06:38:11;;;;;;;81.35;47.58;;;3.70;88.90;;;;;;5052409;28;20406;-60
2021/12/09 06:40:37;;;;;;;75.20;43.95;;;3.70;88.90;;;;;;5034640;28;20029;-61
2021/12/09 06:43:04;;;;;;;74.97;43.95;;;3.70;89.30;;;;;;5034870;28;20025;-60
2021/12/09 06:45:30;;;;;;;70.45;41.05;;;3.80;89.30;;;;;;5052028;28;20033;-61
2021/12/09 06:47:55;;;;;;;77.07;44.28;;;3.90;89.20;;;;;;5052895;28;20036;-61
2021/12/09 06:50:23;;;;;;;74.38;43.67;;;4.00;88.90;;;;;;5052676;28;20029;-64
2021/12/09 06:52:50;;;;;;;77.30;47.30;;;4.10;88.50;;;;;;5034608;28;20025;-60
2021/12/09 06:55:17;;;;;;;84.93;52.95;;;4.10;88.10;;;;;;5035059;28;20035;-62
2021/12/09 06:57:44;;;;;;;75.78;45.92;;;4.10;87.20;;;;;;5052146;28;20029;-61
2021/12/09 07:00:14;;;;;;;82.88;49.38;;;4.10;87.50;;;;;;5034745;28;20120;-65
2021/12/09 07:02:40;;;;;;;80.60;47.60;;;4.20;87.50;;;;;;5051804;28;20017;-58
2021/12/09 07:05:07;;;;;;;62.53;39.42;;;4.20;87.20;;;;;;5034970;28;20025;-61
2021/12/09 07:07:33;;;;;;;61.50;38.47;;;4.20;86.10;;;;;;5051321;28;20119;-64
2021/12/09 07:10:00;;;;;;;59.22;37.67;;;4.10;85.90;;;;;;5052144;28;20384;-62
2021/12/09 07:12:26;;;;;;;63.83;40.92;;;4.10;86.50;;;;;;5051509;28;20060;-60
2021/12/09 07:14:51;;;;;;;60.63;38.20;;;4.10;86.80;;;;;;5052268;28;20057;-63
2021/12/09 07:17:17;;;;;;;60.42;36.90;;;4.10;86.50;;;;;;5034325;28;20056;-61
2021/12/09 07:19:43;;;;;;;60.53;38.03;;;4.20;86.60;;;;;;5032901;28;20122;-62
2021/12/09 07:22:09;;;;;;;63.88;37.33;;;4.20;86.50;;;;;;5034227;28;20405;-60
2021/12/09 07:24:35;;;;;;;61.75;38.88;;;4.10;86.10;;;;;;5051451;28;20030;-63
2021/12/09 07:27:02;;;;;;;71.82;44.30;;;4.10;86.50;;;;;;5051624;28;20056;-64
2021/12/09 07:29:28;;;;;;;61.42;37.20;;;4.20;86.50;;;;;;5050891;28;20037;-62
2021/12/09 07:31:56;;;;;;;61.90;37.67;;;4.20;86.30;;;;;;5034010;28;20377;-63
2021/12/09 07:34:24;;;;;;;55.05;34.58;;;4.20;85.80;;;;;;5033887;28;20025;-61
2021/12/09 07:36:50;;;;;;;54.45;32.78;;;4.30;86.00;;;;;;5033902;28;20017;-62
2021/12/09 07:39:16;;;;;;;50.75;33.90;;;4.30;85.80;;;;;;5051956;28;20031;-64
2021/12/09 07:41:41;;;;;;;57.33;34.72;;;4.30;84.60;;;;;;5051409;28;20016;-60
2021/12/09 07:44:07;;;;;;;48.45;31.88;;;4.30;85.20;;;;;;5051903;28;20453;-61
2021/12/09 07:46:34;;;;;;;51.08;31.63;;;4.30;84.90;;;;;;5051921;28;20416;-58
2021/12/09 07:49:00;;;;;;;48.70;31.23;;;4.30;84.70;;;;;;5053114;28;20029;-63
2021/12/09 07:51:27;;;;;;;50.35;33.38;;;4.30;85.00;;;;;;5038002;28;20024;-67
2021/12/09 07:53:53;;;;;;;52.20;34.30;;;4.40;85.30;;;;;;5038816;28;20102;-62
2021/12/09 07:56:19;;;;;;;49.15;32.58;;;4.40;85.70;;;;;;5037963;28;20025;-61
2021/12/09 07:58:45;;;;;;;54.88;32.95;;;4.50;84.90;;;;;;5037408;28;20029;-61
2021/12/09 08:01:11;;;;;;;50.95;33.10;;;4.60;84.60;;;;;;5056385;28;20044;-61
2021/12/09 08:03:37;;;;;;;53.95;33.78;;;4.60;84.40;;;;;;5037771;28;20033;-61
2021/12/09 08:06:04;;;;;;;48.25;31.10;;;4.70;84.20;;;;;;5038008;28;20033;-61
2021/12/09 08:08:30;;;;;;;52.03;33.20;;;4.70;84.00;;;;;;5055224;28;20021;-64
2021/12/09 08:10:56;;;;;;;47.10;31.05;;;4.70;83.60;;;;;;5055666;28;20036;-60
2021/12/09 08:13:23;;;;;;;49.58;31.73;;;4.60;83.30;;;;;;5037958;28;20061;-60
2021/12/09 08:15:51;;;;;;;45.85;30.00;;;4.70;84.20;;;;;;5037509;28;20025;-60
2021/12/09 08:20:48;;;;;;;49.83;31.17;;;4.70;83.50;;;;;;5055501;28;20029;-62
2021/12/09 08:23:14;;;;;;;44.25;29.70;;;4.70;83.50;;;;;;5055661;28;20028;-60
2021/12/09 08:25:41;;;;;;;47.47;31.42;;;4.70;83.20;;;;;;5055315;28;20055;-59
2021/12/09 08:28:06;;;;;;;46.95;31.40;;;4.70;83.40;;;;;;5060613;28;20048;-63
2021/12/09 08:30:33;;;;;;;50.88;32.53;;;4.70;83.30;;;;;;5066984;28;20105;-73
2021/12/09 08:33:00;;;;;;;48.03;31.42;;;4.80;83.20;;;;;;5066800;28;20040;-67
2021/12/09 08:35:26;;;;;;;48.85;31.98;;;4.80;82.90;;;;;;5067159;28;20111;-66
2021/12/09 08:37:56;;;;;;;51.95;32.13;;;4.90;82.80;;;;;;5066734;28;20036;-66
2021/12/09 08:40:22;;;;;;;54.35;33.88;;;4.90;82.50;;;;;;5068509;28;20100;-70
2021/12/09 08:42:49;;;;;;;49.78;32.42;;;5.00;82.70;;;;;;5067285;28;20409;-64
2021/12/09 08:45:34;;;;;;;64.45;41.28;;;5.00;82.00;;;;;;5050261;28;20033;-65
2021/12/09 08:48:00;;;;;;;50.72;34.67;;;5.10;82.20;;;;;;5066618;28;20033;-69
2021/12/09 08:50:32;;;;;;;54.95;36.50;;;5.10;82.00;;;;;;5068136;28;20032;-65
2021/12/09 08:53:01;;;;;;;60.17;34.42;;;5.10;82.00;;;;;;5066702;28;20025;-65
2021/12/09 08:55:27;;;;;;;43.67;29.60;;;5.20;81.90;;;;;;5068221;28;20086;-67
2021/12/09 08:57:53;;;;;;;46.30;30.30;;;5.30;82.20;;;;;;5067668;28;20040;-67
2021/12/09 09:00:19;;;;;;;39.00;27.80;;;5.30;81.20;;;;;;5067210;28;20159;-65
2021/12/09 09:02:47;;;;;;;41.25;28.45;;;5.30;80.70;;;;;;5067237;28;20416;-72
2021/12/09 09:05:13;;;;;;;39.97;26.55;;;5.30;80.60;;;;;;5068235;28;20035;-63
2021/12/09 09:07:40;;;;;;;41.28;27.67;;;5.30;80.60;;;;;;5066097;28;20064;-64
2021/12/09 09:10:08;;;;;;;39.35;26.52;;;5.40;80.60;;;;;;5066238;28;20025;-68
2021/12/09 09:12:34;;;;;;;35.60;25.02;;;5.30;80.10;;;;;;5067027;28;20548;-66
2021/12/09 09:15:01;;;;;;;39.55;23.95;;;5.30;80.10;;;;;;5067158;28;20375;-64
2021/12/09 09:17:27;;;;;;;36.20;23.35;;;5.20;79.90;;;;;;5067798;28;20028;-68
2021/12/09 09:19:53;;;;;;;33.92;23.08;;;5.10;79.80;;;;;;5067135;28;20236;-62
2021/12/09 09:22:18;;;;;;;30.77;21.88;;;5.10;80.20;;;;;;5065942;28;20028;-65
2021/12/09 09:24:44;;;;;;;51.45;36.47;;;5.10;80.30;;;;;;5064993;28;20032;-64
2021/12/09 09:27:10;;;;;;;32.92;23.88;;;5.10;80.20;;;;;;5065805;28;20048;-67
2021/12/09 09:29:39;;;;;;;57.03;35.08;;;5.20;80.50;;;;;;5065436;28;20111;-69
2021/12/09 09:32:05;;;;;;;30.88;21.77;;;5.20;80.20;;;;;;5067553;28;20035;-64
2021/12/09 09:34:31;;;;;;;31.17;21.13;;;5.20;80.20;;;;;;5065875;28;20535;-64
2021/12/09 09:36:57;;;;;;;35.60;20.92;;;5.20;80.10;;;;;;5067147;28;20035;-63
2021/12/09 09:39:28;;;;;;;35.38;22.38;;;5.30;79.80;;;;;;5067366;28;20036;-67
2021/12/09 09:42:01;;;;;;;49.78;32.50;;;5.30;79.80;;;;;;5065262;28;20441;-62
2021/12/09 09:44:33;;;;;;;33.85;23.77;;;5.30;79.60;;;;;;5067097;28;20028;-65
2021/12/09 09:47:02;;;;;;;30.10;19.55;;;5.30;79.60;;;;;;5067414;28;20181;-64
2021/12/09 09:49:30;;;;;;;30.17;20.70;;;5.30;79.40;;;;;;5066754;28;20478;-66
2021/12/09 09:52:15;;;;;;;28.67;19.63;;;5.30;79.40;;;;;;5065354;28;20318;-64
2021/12/09 09:54:42;;;;;;;26.85;18.50;;;5.30;79.30;;;;;;5063603;28;20124;-70
2021/12/09 09:57:10;;;;;;;30.23;21.02;;;5.30;79.10;;;;;;5065553;28;20070;-69
2021/12/09 09:59:39;;;;;;;26.73;17.98;;;5.20;79.00;;;;;;5065070;28;20472;-66
2021/12/09 10:02:06;;;;;;;30.65;23.05;;;5.30;78.90;;;;;;5065023;28;20120;-64
2021/12/09 10:07:01;;;;;;;32.80;20.40;;;5.20;78.60;;;;;;5074686;28;20033;-64
2021/12/09 10:09:27;;;;;;;27.92;19.38;;;5.20;78.80;;;;;;5072759;28;20036;-62
2021/12/09 10:11:55;;;;;;;31.17;20.73;;;5.20;78.90;;;;;;5071662;28;20355;-61
2021/12/09 10:14:26;;;;;;;28.85;19.33;;;5.30;79.00;;;;;;5073654;28;20029;-66
2021/12/09 10:17:12;;;;;;;32.38;21.15;;;5.30;79.00;;;;;;5072609;28;20024;-65
2021/12/09 10:19:50;;;;;;;31.65;19.48;;;5.40;79.00;;;;;;5072780;28;20385;-65
2021/12/09 10:22:21;;;;;;;29.75;20.85;;;5.40;78.60;;;;;;5073798;28;20048;-61
2021/12/09 10:24:49;;;;;;;27.55;19.50;;;5.40;78.50;;;;;;5073093;28;20032;-62
2021/12/09 10:27:31;;;;;;;33.13;21.63;;;5.40;78.60;;;;;;5066620;28;20088;-63
2021/12/09 10:30:22;;;;;;;37.40;21.23;;;5.50;78.60;;;;;;5052586;28;20072;-64
2021/12/09 10:32:50;;;;;;;38.22;22.35;;;5.40;78.00;;;;;;5034921;28;20029;-63
2021/12/09 10:35:18;;;;;;;35.90;23.45;;;5.30;78.30;;;;;;5035594;28;20033;-66
2021/12/09 10:37:46;;;;;;;36.35;21.85;;;5.30;78.70;;;;;;5053271;28;20370;-63
2021/12/09 10:40:27;;;;;;;31.83;21.48;;;5.30;78.90;;;;;;5053601;28;20052;-71
2021/12/09 10:42:56;;;;;;;31.52;21.40;;;5.40;78.80;;;;;;5052983;28;20079;-62
2021/12/09 10:45:47;;;;;;;41.78;21.23;;;5.40;78.60;;;;;;5035110;28;20067;-69
2021/12/09 10:48:31;;;;;;;36.42;21.13;;;5.50;78.30;;;;;;5053107;28;20033;-63
2021/12/09 10:55:58;;;;;;;31.00;21.02;;;5.20;78.30;;;;;;5052378;28;20025;-67
2021/12/09 10:58:32;;;;;;;33.13;22.05;;;5.20;78.70;;;;;;5052234;28;20031;-67
2021/12/09 11:01:03;;;;;;;32.58;19.42;;;5.30;78.90;;;;;;5034528;28;20590;-65
2021/12/09 11:03:40;;;;;;;40.22;22.30;;;5.20;78.70;;;;;;5034816;28;20159;-68
2021/12/09 11:06:12;;;;;;;29.92;19.33;;;5.20;78.70;;;;;;5034131;28;20064;-66
2021/12/09 11:08:47;;;;;;;48.45;33.00;;;5.30;78.80;;;;;;5034632;28;20537;-71
2021/12/09 11:11:18;;;;;;;30.88;18.23;;;5.40;78.60;;;;;;5034787;28;20450;-66
2021/12/09 11:14:13;;;;;;;29.63;18.52;;;5.40;77.60;;;;;;5052075;28;20039;-67
2021/12/09 11:16:43;;;;;;;31.48;21.75;;;5.40;77.80;;;;;;5021292;28;20049;-68
2021/12/09 11:19:23;;;;;;;34.13;22.75;;;5.40;77.40;;;;;;5034591;28;20055;-72
2021/12/09 11:21:56;;;;;;;28.58;20.50;;;5.40;78.10;;;;;;5051913;28;20043;-67
2021/12/09 11:24:26;;;;;;;22.60;15.77;;;5.50;77.90;;;;;;5051812;28;20071;-72
2021/12/09 11:26:59;;;;;;;22.38;15.63;;;5.40;77.30;;;;;;5051444;28;20056;-70
2021/12/09 11:29:32;;;;;;;19.42;14.75;;;5.40;77.30;;;;;;5034848;28;20121;-63
2021/12/09 11:34:47;;;;;;;21.77;17.67;;;5.40;77.00;;;;;;5052578;28;20025;-70
2021/12/09 11:40:14;;;;;;;19.80;14.35;;;5.40;77.20;;;;;;5051680;28;20124;-69
2021/12/09 11:42:56;;;;;;;18.92;13.38;;;5.30;77.10;;;;;;5017929;28;20087;-72
2021/12/09 11:45:25;;;;;;;20.63;14.40;;;5.30;77.30;;;;;;5034218;28;20481;-65
2021/12/09 11:47:53;;;;;;;17.65;12.63;;;5.30;77.20;;;;;;5033614;28;20485;-67
2021/12/09 11:50:22;;;;;;;17.42;12.52;;;5.20;77.10;;;;;;5034248;28;20063;-69
2021/12/09 11:53:08;;;;;;;17.65;13.23;;;5.20;77.30;;;;;;5033899;28;20029;-66
2021/12/09 11:55:40;;;;;;;17.77;13.70;;;5.20;77.30;;;;;;5037174;28;20051;-67
2021/12/09 11:58:11;;;;;;;20.70;13.93;;;5.30;77.50;;;;;;5033832;28;20040;-68
2021/12/09 12:15:24;;;;;;;17.75;13.82;;;5.40;76.80;;;;;;5051561;28;20405;-66
2021/12/09 12:29:43;;;;;;;;;;;5.50;76.40;;;;;;5046251;28;20036;-67
2021/12/09 12:40:57;;;;;;;31.65;17.58;;;5.40;76.70;;;;;;5055100;28;20040;-69
2021/12/09 12:43:29;;;;;;;73.38;18.95;;;5.40;77.00;;;;;;5036089;28;20037;-68
2021/12/09 12:46:21;;;;;;;38.33;15.80;;;5.40;76.90;;;;;;5036246;28;20027;-70
2021/12/09 12:54:01;;;;;;;20.67;14.68;;;5.30;76.90;;;;;;5053063;28;20044;-71
2021/12/09 12:56:30;;;;;;;21.60;14.73;;;5.30;76.90;;;;;;5036012;28;20025;-69
2021/12/09 12:59:11;;;;;;;21.63;14.98;;;5.30;77.10;;;;;;5034700;28;20462;-71
2021/12/09 13:01:59;;;;;;;20.02;14.65;;;5.30;77.00;;;;;;5054467;28;20036;-70
2021/12/09 13:08:30;;;;;;;23.58;14.35;;;5.40;77.10;;;;;;5040836;28;20438;-68
2021/12/09 13:13:27;;;;;;;25.27;17.02;;;5.50;76.70;;;;;;5054135;28;20523;-69
2021/12/09 13:21:45;;;;;;;27.25;16.90;;;5.50;76.80;;;;;;5053261;28;20128;-73
2021/12/09 13:25:04;;;;;;;30.17;16.17;;;5.50;76.70;;;;;;5054846;28;20021;-70
2021/12/09 13:27:45;;;;;;;32.45;16.80;;;5.50;76.80;;;;;;5049237;28;20131;-71
2021/12/09 13:30:33;;;;;;;26.15;17.13;;;5.40;77.00;;;;;;5073857;28;20044;-72
2021/12/09 13:46:32;;;;;;;27.20;17.52;;;5.50;77.60;;;;;;5074035;28;20393;-65
2021/12/09 13:56:46;;;;;;;28.20;18.65;;;5.50;77.50;;;;;;5073383;28;20070;-66
2021/12/09 13:59:21;;;;;;;24.30;15.88;;;5.30;78.10;;;;;;5073092;28;20032;-66
2021/12/09 14:01:48;;;;;;;23.23;15.73;;;5.20;78.20;;;;;;5074087;28;20029;-66
2021/12/09 14:04:19;;;;;;;29.40;15.43;;;5.20;78.50;;;;;;5072323;28;20082;-69
2021/12/09 14:07:04;;;;;;;21.48;15.10;;;5.20;78.90;;;;;;5073719;28;20029;-65
2021/12/09 14:09:31;;;;;;;22.33;14.75;;;5.20;78.90;;;;;;5069466;28;20453;-74
2021/12/09 14:11:58;;;;;;;25.05;16.10;;;5.30;78.90;;;;;;5056721;28;20295;-75
2021/12/09 14:14:35;;;;;;;18.67;14.18;;;5.30;78.80;;;;;;5053933;28;20024;-66
2021/12/09 14:17:04;;;;;;;20.45;15.38;;;5.40;78.40;;;;;;5055919;28;20075;-76
2021/12/09 14:22:36;;;;;;;22.55;15.50;;;5.40;77.90;;;;;;5058440;28;20074;-69
2021/12/09 14:25:10;;;;;;;25.20;16.92;;;5.40;77.50;;;;;;5072295;28;20530;-69